DEN weather

Denver International Airport
Denver, Colorado, United States

Public forecast

Using degrees Fahrenheit for public forecast. Weather courtesy of forecast.io.

METAR (pilot weather report)

Retrieved 2017/05/28 13:53 UTC (21 minutes ago):

KDEN 281353Z 23010KT 10SM CLR 11/03 A3028 RMK AO2 SLP218 T01110028

TAF (pilot weather forecast)

Retrieved 2017/05/28 12:22 UTC (2 hours ago):

TAF KDEN 281120Z 2812/2918 23008KT P6SM SKC FM281600 31007KT P6SM FEW080 FM281900 34008KT P6SM FEW080 SCT120 FM282200 01010KT P6SM SCT080 BKN120 FM290200 18010KT P6SM SCT080 BKN120 FM290800 24008KT P6SM SCT080 BKN120 FM291200 04008KT P6SM SCT050 BKN080